This is the latest recevied weather packets stored in our database for station/object G7GFU-13. If no packets are shown the sender has not sent any weather packets the latest 10 day(s).
| Time | Temp. | Humidity | Pressure | Rain* | Wind** | Luminosity | Snow |
|---|---|---|---|---|---|---|---|
| 1777242423 | 11.67° C | 79% | 1024.6 hPa | 0 mm | - | - | - |
| 1777237743 | 13.33° C | 74% | 1024.2 hPa | 0 mm | - | - | - |
| 1777235763 | 13.89° C | 71% | 1024.1 hPa | 0 mm | - | - | - |
| 1777234277 | 14.44° C | 69% | 1023.9 hPa | 0 mm | - | - | - |
| 1777233603 | 14.44° C | 69% | 1023.8 hPa | 0 mm | - | - | - |
| 1777228023 | 16.11° C | 64% | 1023.2 hPa | 0 mm | - | - | - |
| 1777222803 | 18.89° C | 53% | 1023.1 hPa | 0 mm | - | - | - |
| 1777220283 | 19.44° C | 51% | 1023.2 hPa | 0 mm | - | - | - |
| 1777217223 | 19.44° C | 50% | 1023.4 hPa | 0 mm | - | - | - |
| 1777216143 | 18.89° C | 50% | 1023.4 hPa | 0 mm | - | - | - |
| 1777214703 | 18.89° C | 50% | 1023.4 hPa | 0 mm | - | - | - |
| 1777210563 | 18.33° C | 51% | 1023.7 hPa | 0 mm | - | - | - |
| 1777210023 | 18.89° C | 53% | 1023.8 hPa | 0 mm | - | - | - |
| 1777208537 | 17.78° C | 57% | 1024 hPa | 0 mm | - | - | - |
| 1777204803 | 16.11° C | 59% | 1024.3 hPa | 0 mm | - | - | - |
| 1777203363 | 15° C | 63% | 1024.5 hPa | 0 mm | - | - | - |
| 1777202823 | 15° C | 61% | 1024.5 hPa | 0 mm | - | - | - |
| 1777200303 | 15.56° C | 61% | 1024.6 hPa | 0 mm | - | - | - |
| 1777199763 | 15.56° C | 61% | 1024.6 hPa | 0 mm | - | - | - |
| 1777193103 | 11.11° C | 73% | 1024.9 hPa | 0 mm | - | - | - |
| 1777190043 | 10.56° C | 74% | 1025 hPa | 0 mm | - | - | - |
| 1777188423 | 8.89° C | 76% | 1024.9 hPa | 0 mm | - | - | - |
| 1777187478 | 8.89° C | 77% | 1024.8 hPa | 0 mm | - | - | - |
| 1777183744 | 7.22° C | 83% | 1024.2 hPa | 0 mm | - | - | - |
| 1777179603 | 7.22° C | 83% | 1024 hPa | 0 mm | - | - | - |
* Rain latest hour (hover to see other rain measurements)
** Current wind speed in m/s (hover to see current wind gust speed)